sensor_id;sensor_type;location;lat;lon;timestamp;P1;durP1;ratioP1;P2;durP2;ratioP2
79066;SDS011;68470;50.224;14.348;2023-07-02T00:00:28;3.60;;;1.90;;
79066;SDS011;68470;50.224;14.348;2023-07-02T00:03:14;2.90;;;1.92;;
79066;SDS011;68470;50.224;14.348;2023-07-02T00:05:40;4.13;;;1.60;;
79066;SDS011;68470;50.224;14.348;2023-07-02T00:08:05;3.33;;;1.63;;
79066;SDS011;68470;50.224;14.348;2023-07-02T00:10:32;2.70;;;2.30;;
79066;SDS011;68470;50.224;14.348;2023-07-02T00:12:57;2.92;;;1.80;;
79066;SDS011;68470;50.224;14.348;2023-07-02T00:15:23;2.92;;;1.98;;
79066;SDS011;68470;50.224;14.348;2023-07-02T00:17:49;2.40;;;1.67;;
79066;SDS011;68470;50.224;14.348;2023-07-02T00:20:15;3.78;;;1.85;;
79066;SDS011;68470;50.224;14.348;2023-07-02T00:22:42;3.33;;;1.90;;
79066;SDS011;68470;50.224;14.348;2023-07-02T00:25:10;3.72;;;1.80;;
79066;SDS011;68470;50.224;14.348;2023-07-02T00:27:35;2.60;;;1.95;;
79066;SDS011;68470;50.224;14.348;2023-07-02T00:30:02;2.47;;;1.70;;
79066;SDS011;68470;50.224;14.348;2023-07-02T00:32:28;4.75;;;1.83;;
79066;SDS011;68470;50.224;14.348;2023-07-02T00:34:54;3.35;;;1.80;;
79066;SDS011;68470;50.224;14.348;2023-07-02T00:37:20;3.22;;;1.65;;
79066;SDS011;68470;50.224;14.348;2023-07-02T00:39:47;2.95;;;1.83;;
79066;SDS011;68470;50.224;14.348;2023-07-02T00:42:13;3.53;;;1.77;;
79066;SDS011;68470;50.224;14.348;2023-07-02T00:44:40;3.75;;;1.95;;
79066;SDS011;68470;50.224;14.348;2023-07-02T00:47:09;3.35;;;1.80;;
79066;SDS011;68470;50.224;14.348;2023-07-02T00:49:36;2.92;;;2.00;;
79066;SDS011;68470;50.224;14.348;2023-07-02T00:52:02;3.35;;;1.75;;
79066;SDS011;68470;50.224;14.348;2023-07-02T00:54:28;3.80;;;2.00;;
79066;SDS011;68470;50.224;14.348;2023-07-02T00:56:54;2.97;;;1.95;;
79066;SDS011;68470;50.224;14.348;2023-07-02T00:59:20;2.67;;;1.77;;
79066;SDS011;68470;50.224;14.348;2023-07-02T01:01:46;3.28;;;1.63;;
79066;SDS011;68470;50.224;14.348;2023-07-02T01:04:18;2.58;;;1.50;;
79066;SDS011;68470;50.224;14.348;2023-07-02T01:06:44;2.50;;;1.50;;
79066;SDS011;68470;50.224;14.348;2023-07-02T01:09:10;2.40;;;1.38;;
79066;SDS011;68470;50.224;14.348;2023-07-02T01:11:38;4.35;;;1.70;;
79066;SDS011;68470;50.224;14.348;2023-07-02T01:14:11;2.28;;;1.73;;
79066;SDS011;68470;50.224;14.348;2023-07-02T01:16:40;2.78;;;1.70;;
79066;SDS011;68470;50.224;14.348;2023-07-02T01:19:13;3.47;;;1.70;;
79066;SDS011;68470;50.224;14.348;2023-07-02T01:21:44;1.90;;;1.25;;
79066;SDS011;68470;50.224;14.348;2023-07-02T01:24:11;3.85;;;1.42;;
79066;SDS011;68470;50.224;14.348;2023-07-02T01:26:37;3.28;;;1.55;;
79066;SDS011;68470;50.224;14.348;2023-07-02T01:29:16;2.50;;;1.50;;
79066;SDS011;68470;50.224;14.348;2023-07-02T01:31:43;1.85;;;1.30;;
79066;SDS011;68470;50.224;14.348;2023-07-02T01:34:09;2.30;;;1.30;;
79066;SDS011;68470;50.224;14.348;2023-07-02T01:36:35;3.60;;;1.42;;
79066;SDS011;68470;50.224;14.348;2023-07-02T01:39:00;1.67;;;1.00;;
79066;SDS011;68470;50.224;14.348;2023-07-02T01:41:26;1.45;;;1.02;;
79066;SDS011;68470;50.224;14.348;2023-07-02T01:43:53;2.05;;;1.30;;
79066;SDS011;68470;50.224;14.348;2023-07-02T01:46:19;1.83;;;1.40;;
79066;SDS011;68470;50.224;14.348;2023-07-02T01:48:45;1.77;;;1.30;;
79066;SDS011;68470;50.224;14.348;2023-07-02T01:51:10;2.63;;;1.38;;
79066;SDS011;68470;50.224;14.348;2023-07-02T01:53:36;2.55;;;1.70;;
79066;SDS011;68470;50.224;14.348;2023-07-02T01:56:02;2.20;;;1.38;;
79066;SDS011;68470;50.224;14.348;2023-07-02T01:58:28;2.17;;;1.25;;
79066;SDS011;68470;50.224;14.348;2023-07-02T02:00:54;2.10;;;1.23;;
79066;SDS011;68470;50.224;14.348;2023-07-02T02:03:20;2.28;;;1.55;;
79066;SDS011;68470;50.224;14.348;2023-07-02T02:05:46;2.25;;;1.58;;
79066;SDS011;68470;50.224;14.348;2023-07-02T02:08:12;2.15;;;1.52;;
79066;SDS011;68470;50.224;14.348;2023-07-02T02:10:38;2.25;;;1.63;;
79066;SDS011;68470;50.224;14.348;2023-07-02T02:13:04;2.33;;;1.50;;
79066;SDS011;68470;50.224;14.348;2023-07-02T02:15:30;2.38;;;1.70;;
79066;SDS011;68470;50.224;14.348;2023-07-02T02:17:56;2.53;;;1.23;;
79066;SDS011;68470;50.224;14.348;2023-07-02T02:20:21;3.67;;;1.35;;
79066;SDS011;68470;50.224;14.348;2023-07-02T02:22:47;2.20;;;1.55;;
79066;SDS011;68470;50.224;14.348;2023-07-02T02:25:13;3.03;;;1.48;;
79066;SDS011;68470;50.224;14.348;2023-07-02T02:27:39;3.42;;;1.52;;
79066;SDS011;68470;50.224;14.348;2023-07-02T02:30:05;3.22;;;1.90;;
79066;SDS011;68470;50.224;14.348;2023-07-02T02:32:32;2.78;;;1.80;;
79066;SDS011;68470;50.224;14.348;2023-07-02T02:34:58;2.70;;;1.70;;
79066;SDS011;68470;50.224;14.348;2023-07-02T02:37:23;2.65;;;1.83;;
79066;SDS011;68470;50.224;14.348;2023-07-02T02:39:49;3.15;;;1.83;;
79066;SDS011;68470;50.224;14.348;2023-07-02T02:42:16;3.03;;;1.95;;
79066;SDS011;68470;50.224;14.348;2023-07-02T02:44:41;2.55;;;1.73;;
79066;SDS011;68470;50.224;14.348;2023-07-02T02:47:07;3.17;;;2.17;;
79066;SDS011;68470;50.224;14.348;2023-07-02T02:49:33;3.17;;;1.77;;
79066;SDS011;68470;50.224;14.348;2023-07-02T02:51:58;3.10;;;1.63;;
79066;SDS011;68470;50.224;14.348;2023-07-02T02:54:24;2.70;;;1.80;;
79066;SDS011;68470;50.224;14.348;2023-07-02T02:56:50;2.83;;;1.88;;
79066;SDS011;68470;50.224;14.348;2023-07-02T02:59:15;2.53;;;1.90;;
79066;SDS011;68470;50.224;14.348;2023-07-02T03:01:41;3.05;;;1.85;;
79066;SDS011;68470;50.224;14.348;2023-07-02T03:04:07;2.22;;;1.70;;
79066;SDS011;68470;50.224;14.348;2023-07-02T03:06:35;3.67;;;1.73;;
79066;SDS011;68470;50.224;14.348;2023-07-02T03:09:00;3.70;;;1.70;;
79066;SDS011;68470;50.224;14.348;2023-07-02T03:11:26;3.33;;;2.20;;
79066;SDS011;68470;50.224;14.348;2023-07-02T03:13:52;2.50;;;2.03;;
79066;SDS011;68470;50.224;14.348;2023-07-02T03:16:18;2.75;;;1.88;;
79066;SDS011;68470;50.224;14.348;2023-07-02T03:18:46;2.88;;;1.70;;
79066;SDS011;68470;50.224;14.348;2023-07-02T03:21:12;2.40;;;1.80;;
79066;SDS011;68470;50.224;14.348;2023-07-02T03:23:38;2.67;;;1.80;;
79066;SDS011;68470;50.224;14.348;2023-07-02T03:26:04;2.90;;;1.85;;
79066;SDS011;68470;50.224;14.348;2023-07-02T03:28:29;3.13;;;2.03;;
79066;SDS011;68470;50.224;14.348;2023-07-02T03:30:55;3.80;;;2.20;;
79066;SDS011;68470;50.224;14.348;2023-07-02T03:33:21;4.22;;;2.10;;
79066;SDS011;68470;50.224;14.348;2023-07-02T03:35:47;3.72;;;2.13;;
79066;SDS011;68470;50.224;14.348;2023-07-02T03:38:13;3.25;;;2.20;;
79066;SDS011;68470;50.224;14.348;2023-07-02T03:40:40;3.17;;;2.15;;
79066;SDS011;68470;50.224;14.348;2023-07-02T03:43:05;3.88;;;2.53;;
79066;SDS011;68470;50.224;14.348;2023-07-02T03:45:31;5.35;;;2.10;;
79066;SDS011;68470;50.224;14.348;2023-07-02T03:47:57;3.40;;;1.80;;
79066;SDS011;68470;50.224;14.348;2023-07-02T03:50:23;2.85;;;1.85;;
79066;SDS011;68470;50.224;14.348;2023-07-02T03:52:49;3.65;;;2.25;;
79066;SDS011;68470;50.224;14.348;2023-07-02T03:55:15;2.85;;;2.00;;
79066;SDS011;68470;50.224;14.348;2023-07-02T03:57:41;4.88;;;2.13;;
79066;SDS011;68470;50.224;14.348;2023-07-02T04:00:07;2.75;;;1.80;;
79066;SDS011;68470;50.224;14.348;2023-07-02T04:02:35;2.83;;;1.80;;
79066;SDS011;68470;50.224;14.348;2023-07-02T04:05:01;2.72;;;1.92;;
79066;SDS011;68470;50.224;14.348;2023-07-02T04:07:27;3.20;;;2.20;;
79066;SDS011;68470;50.224;14.348;2023-07-02T04:09:53;3.03;;;2.33;;
79066;SDS011;68470;50.224;14.348;2023-07-02T04:12:19;3.72;;;1.92;;
79066;SDS011;68470;50.224;14.348;2023-07-02T04:14:45;3.05;;;2.17;;
79066;SDS011;68470;50.224;14.348;2023-07-02T04:17:10;2.95;;;2.35;;
79066;SDS011;68470;50.224;14.348;2023-07-02T04:19:36;4.47;;;1.83;;
79066;SDS011;68470;50.224;14.348;2023-07-02T04:22:02;3.45;;;2.15;;
79066;SDS011;68470;50.224;14.348;2023-07-02T04:24:28;2.58;;;2.00;;
79066;SDS011;68470;50.224;14.348;2023-07-02T04:26:53;2.88;;;1.90;;
79066;SDS011;68470;50.224;14.348;2023-07-02T04:29:19;6.38;;;2.30;;
79066;SDS011;68470;50.224;14.348;2023-07-02T04:31:45;3.50;;;2.10;;
79066;SDS011;68470;50.224;14.348;2023-07-02T04:34:11;3.10;;;2.30;;
79066;SDS011;68470;50.224;14.348;2023-07-02T04:36:37;2.85;;;2.10;;
79066;SDS011;68470;50.224;14.348;2023-07-02T04:39:03;4.00;;;2.80;;
79066;SDS011;68470;50.224;14.348;2023-07-02T04:41:29;4.85;;;2.20;;
79066;SDS011;68470;50.224;14.348;2023-07-02T04:43:55;4.30;;;2.22;;
79066;SDS011;68470;50.224;14.348;2023-07-02T04:46:21;3.03;;;1.90;;
79066;SDS011;68470;50.224;14.348;2023-07-02T04:48:47;3.15;;;2.15;;
79066;SDS011;68470;50.224;14.348;2023-07-02T04:51:13;4.00;;;2.08;;
79066;SDS011;68470;50.224;14.348;2023-07-02T04:53:39;4.57;;;2.17;;
79066;SDS011;68470;50.224;14.348;2023-07-02T04:56:05;3.38;;;2.47;;
79066;SDS011;68470;50.224;14.348;2023-07-02T04:58:31;3.63;;;1.95;;
79066;SDS011;68470;50.224;14.348;2023-07-02T05:00:56;2.95;;;2.17;;
79066;SDS011;68470;50.224;14.348;2023-07-02T05:03:22;3.70;;;2.00;;
79066;SDS011;68470;50.224;14.348;2023-07-02T05:05:48;3.35;;;2.13;;
79066;SDS011;68470;50.224;14.348;2023-07-02T05:08:16;3.47;;;2.47;;
79066;SDS011;68470;50.224;14.348;2023-07-02T05:10:41;2.95;;;2.03;;
79066;SDS011;68470;50.224;14.348;2023-07-02T05:13:07;4.43;;;2.42;;
79066;SDS011;68470;50.224;14.348;2023-07-02T05:15:33;4.13;;;2.67;;
79066;SDS011;68470;50.224;14.348;2023-07-02T05:17:59;3.25;;;2.40;;
79066;SDS011;68470;50.224;14.348;2023-07-02T05:20:25;3.70;;;2.40;;
79066;SDS011;68470;50.224;14.348;2023-07-02T05:22:51;3.42;;;2.38;;
79066;SDS011;68470;50.224;14.348;2023-07-02T05:25:17;3.22;;;2.30;;
79066;SDS011;68470;50.224;14.348;2023-07-02T05:27:42;2.47;;;1.98;;
79066;SDS011;68470;50.224;14.348;2023-07-02T05:30:08;3.35;;;1.92;;
79066;SDS011;68470;50.224;14.348;2023-07-02T05:32:35;4.03;;;2.22;;
79066;SDS011;68470;50.224;14.348;2023-07-02T05:35:00;3.45;;;2.47;;
79066;SDS011;68470;50.224;14.348;2023-07-02T05:37:26;3.03;;;2.00;;
79066;SDS011;68470;50.224;14.348;2023-07-02T05:39:52;2.38;;;2.03;;
79066;SDS011;68470;50.224;14.348;2023-07-02T05:42:19;3.58;;;2.17;;
79066;SDS011;68470;50.224;14.348;2023-07-02T05:44:44;4.38;;;2.38;;
79066;SDS011;68470;50.224;14.348;2023-07-02T05:47:10;2.65;;;1.95;;
79066;SDS011;68470;50.224;14.348;2023-07-02T05:49:36;3.25;;;2.50;;
79066;SDS011;68470;50.224;14.348;2023-07-02T05:52:01;4.82;;;2.65;;
79066;SDS011;68470;50.224;14.348;2023-07-02T05:54:27;2.90;;;2.40;;
79066;SDS011;68470;50.224;14.348;2023-07-02T05:56:53;2.92;;;2.10;;
79066;SDS011;68470;50.224;14.348;2023-07-02T05:59:19;3.53;;;2.25;;
79066;SDS011;68470;50.224;14.348;2023-07-02T06:01:45;4.05;;;2.47;;
79066;SDS011;68470;50.224;14.348;2023-07-02T06:04:12;5.20;;;2.58;;
79066;SDS011;68470;50.224;14.348;2023-07-02T06:06:38;2.97;;;2.10;;
79066;SDS011;68470;50.224;14.348;2023-07-02T06:09:04;3.58;;;2.80;;
79066;SDS011;68470;50.224;14.348;2023-07-02T06:11:30;2.40;;;1.85;;
79066;SDS011;68470;50.224;14.348;2023-07-02T06:13:55;3.10;;;2.80;;
79066;SDS011;68470;50.224;14.348;2023-07-02T06:16:21;3.20;;;2.03;;
79066;SDS011;68470;50.224;14.348;2023-07-02T06:18:47;2.90;;;2.30;;
79066;SDS011;68470;50.224;14.348;2023-07-02T06:21:13;3.63;;;2.35;;
79066;SDS011;68470;50.224;14.348;2023-07-02T06:23:40;3.13;;;2.30;;
79066;SDS011;68470;50.224;14.348;2023-07-02T06:26:09;3.10;;;2.30;;
79066;SDS011;68470;50.224;14.348;2023-07-02T06:28:36;3.83;;;2.67;;
79066;SDS011;68470;50.224;14.348;2023-07-02T06:31:02;3.47;;;2.40;;
79066;SDS011;68470;50.224;14.348;2023-07-02T06:33:27;3.17;;;2.30;;
79066;SDS011;68470;50.224;14.348;2023-07-02T06:35:54;2.72;;;2.17;;
79066;SDS011;68470;50.224;14.348;2023-07-02T06:38:19;3.53;;;2.33;;
79066;SDS011;68470;50.224;14.348;2023-07-02T06:40:45;3.70;;;2.45;;
79066;SDS011;68470;50.224;14.348;2023-07-02T06:43:11;2.85;;;2.50;;
79066;SDS011;68470;50.224;14.348;2023-07-02T06:45:37;3.65;;;2.28;;
79066;SDS011;68470;50.224;14.348;2023-07-02T06:48:03;3.35;;;2.40;;
79066;SDS011;68470;50.224;14.348;2023-07-02T06:50:29;3.50;;;2.60;;
79066;SDS011;68470;50.224;14.348;2023-07-02T06:52:54;3.05;;;2.38;;
79066;SDS011;68470;50.224;14.348;2023-07-02T06:55:21;3.40;;;2.63;;
79066;SDS011;68470;50.224;14.348;2023-07-02T06:57:48;4.97;;;2.70;;
79066;SDS011;68470;50.224;14.348;2023-07-02T07:00:15;3.00;;;2.65;;
79066;SDS011;68470;50.224;14.348;2023-07-02T07:02:41;3.33;;;2.30;;
79066;SDS011;68470;50.224;14.348;2023-07-02T07:05:07;3.13;;;2.83;;
79066;SDS011;68470;50.224;14.348;2023-07-02T07:07:34;3.08;;;2.30;;
79066;SDS011;68470;50.224;14.348;2023-07-02T07:10:01;3.33;;;2.60;;
79066;SDS011;68470;50.224;14.348;2023-07-02T07:12:27;2.83;;;2.25;;
79066;SDS011;68470;50.224;14.348;2023-07-02T07:14:54;3.88;;;2.28;;
79066;SDS011;68470;50.224;14.348;2023-07-02T07:17:20;3.25;;;2.92;;
79066;SDS011;68470;50.224;14.348;2023-07-02T07:19:46;2.83;;;2.22;;
79066;SDS011;68470;50.224;14.348;2023-07-02T07:22:12;3.28;;;2.40;;
79066;SDS011;68470;50.224;14.348;2023-07-02T07:24:38;3.22;;;2.58;;
79066;SDS011;68470;50.224;14.348;2023-07-02T07:27:03;3.25;;;2.95;;
79066;SDS011;68470;50.224;14.348;2023-07-02T07:29:30;3.65;;;2.05;;
79066;SDS011;68470;50.224;14.348;2023-07-02T07:31:55;3.83;;;2.60;;
79066;SDS011;68470;50.224;14.348;2023-07-02T07:34:33;3.05;;;2.42;;
79066;SDS011;68470;50.224;14.348;2023-07-02T07:36:59;3.25;;;2.85;;
79066;SDS011;68470;50.224;14.348;2023-07-02T07:39:25;3.15;;;2.70;;
79066;SDS011;68470;50.224;14.348;2023-07-02T07:41:51;3.50;;;2.42;;
79066;SDS011;68470;50.224;14.348;2023-07-02T07:44:17;3.25;;;2.33;;
79066;SDS011;68470;50.224;14.348;2023-07-02T07:46:42;7.88;;;1.77;;
79066;SDS011;68470;50.224;14.348;2023-07-02T07:49:09;4.30;;;2.50;;
79066;SDS011;68470;50.224;14.348;2023-07-02T07:51:35;4.90;;;2.72;;
79066;SDS011;68470;50.224;14.348;2023-07-02T07:54:04;3.03;;;2.30;;
79066;SDS011;68470;50.224;14.348;2023-07-02T07:56:30;3.60;;;2.90;;
79066;SDS011;68470;50.224;14.348;2023-07-02T07:58:56;2.83;;;2.38;;
79066;SDS011;68470;50.224;14.348;2023-07-02T08:01:22;4.43;;;2.33;;
79066;SDS011;68470;50.224;14.348;2023-07-02T08:03:51;2.30;;;2.10;;
79066;SDS011;68470;50.224;14.348;2023-07-02T08:06:20;3.33;;;2.40;;
79066;SDS011;68470;50.224;14.348;2023-07-02T08:08:46;2.33;;;1.90;;
79066;SDS011;68470;50.224;14.348;2023-07-02T08:11:11;2.55;;;2.35;;
79066;SDS011;68470;50.224;14.348;2023-07-02T08:13:37;2.70;;;2.40;;
79066;SDS011;68470;50.224;14.348;2023-07-02T08:16:03;3.45;;;2.30;;
79066;SDS011;68470;50.224;14.348;2023-07-02T08:18:29;2.83;;;2.28;;
79066;SDS011;68470;50.224;14.348;2023-07-02T08:20:55;2.55;;;2.10;;
79066;SDS011;68470;50.224;14.348;2023-07-02T08:23:20;2.97;;;2.58;;
79066;SDS011;68470;50.224;14.348;2023-07-02T08:25:46;7.45;;;2.22;;
79066;SDS011;68470;50.224;14.348;2023-07-02T08:28:12;2.30;;;2.10;;
79066;SDS011;68470;50.224;14.348;2023-07-02T08:30:38;2.30;;;2.08;;
79066;SDS011;68470;50.224;14.348;2023-07-02T08:33:03;3.53;;;2.47;;
79066;SDS011;68470;50.224;14.348;2023-07-02T08:35:29;3.28;;;2.97;;
79066;SDS011;68470;50.224;14.348;2023-07-02T08:37:56;2.92;;;2.50;;
79066;SDS011;68470;50.224;14.348;2023-07-02T08:40:22;2.78;;;2.47;;
79066;SDS011;68470;50.224;14.348;2023-07-02T08:42:49;3.60;;;2.65;;
79066;SDS011;68470;50.224;14.348;2023-07-02T08:45:15;2.92;;;2.33;;
79066;SDS011;68470;50.224;14.348;2023-07-02T08:47:44;2.33;;;2.10;;
79066;SDS011;68470;50.224;14.348;2023-07-02T08:50:13;2.80;;;2.17;;
79066;SDS011;68470;50.224;14.348;2023-07-02T08:52:39;3.50;;;2.33;;
79066;SDS011;68470;50.224;14.348;2023-07-02T08:55:05;2.92;;;2.38;;
79066;SDS011;68470;50.224;14.348;2023-07-02T08:57:31;2.65;;;2.05;;
79066;SDS011;68470;50.224;14.348;2023-07-02T08:59:58;2.70;;;2.30;;
79066;SDS011;68470;50.224;14.348;2023-07-02T09:02:31;3.00;;;2.42;;
79066;SDS011;68470;50.224;14.348;2023-07-02T09:04:59;4.13;;;2.55;;
79066;SDS011;68470;50.224;14.348;2023-07-02T09:07:26;3.90;;;2.40;;
79066;SDS011;68470;50.224;14.348;2023-07-02T09:09:52;2.53;;;2.30;;
79066;SDS011;68470;50.224;14.348;2023-07-02T09:12:27;3.30;;;2.65;;
79066;SDS011;68470;50.224;14.348;2023-07-02T09:14:55;2.90;;;2.55;;
79066;SDS011;68470;50.224;14.348;2023-07-02T09:17:29;3.20;;;2.38;;
79066;SDS011;68470;50.224;14.348;2023-07-02T09:19:56;2.95;;;2.65;;
79066;SDS011;68470;50.224;14.348;2023-07-02T09:22:24;3.08;;;2.78;;
79066;SDS011;68470;50.224;14.348;2023-07-02T09:24:56;2.72;;;2.42;;
79066;SDS011;68470;50.224;14.348;2023-07-02T09:27:36;2.95;;;2.65;;
79066;SDS011;68470;50.224;14.348;2023-07-02T09:30:07;2.35;;;1.92;;
79066;SDS011;68470;50.224;14.348;2023-07-02T09:32:34;2.83;;;2.53;;
79066;SDS011;68470;50.224;14.348;2023-07-02T09:35:00;3.25;;;2.20;;
79066;SDS011;68470;50.224;14.348;2023-07-02T09:37:27;2.80;;;2.50;;
79066;SDS011;68470;50.224;14.348;2023-07-02T09:39:53;2.88;;;2.20;;
79066;SDS011;68470;50.224;14.348;2023-07-02T09:42:21;3.78;;;2.28;;
79066;SDS011;68470;50.224;14.348;2023-07-02T09:44:47;3.05;;;2.40;;
79066;SDS011;68470;50.224;14.348;2023-07-02T09:47:18;2.80;;;1.80;;
79066;SDS011;68470;50.224;14.348;2023-07-02T09:49:54;2.78;;;1.83;;
79066;SDS011;68470;50.224;14.348;2023-07-02T09:52:23;2.95;;;2.65;;
79066;SDS011;68470;50.224;14.348;2023-07-02T09:54:51;3.28;;;2.80;;
79066;SDS011;68470;50.224;14.348;2023-07-02T09:57:17;3.08;;;2.40;;
79066;SDS011;68470;50.224;14.348;2023-07-02T09:59:43;3.58;;;3.28;;
79066;SDS011;68470;50.224;14.348;2023-07-02T10:02:09;4.53;;;3.08;;
79066;SDS011;68470;50.224;14.348;2023-07-02T10:04:47;3.53;;;2.65;;
79066;SDS011;68470;50.224;14.348;2023-07-02T10:07:29;2.78;;;2.30;;
79066;SDS011;68470;50.224;14.348;2023-07-02T10:09:57;3.00;;;2.70;;
79066;SDS011;68470;50.224;14.348;2023-07-02T10:12:24;3.92;;;3.53;;
79066;SDS011;68470;50.224;14.348;2023-07-02T10:14:53;2.83;;;2.53;;
79066;SDS011;68470;50.224;14.348;2023-07-02T10:17:28;4.68;;;2.92;;
79066;SDS011;68470;50.224;14.348;2023-07-02T10:20:07;3.45;;;3.15;;
79066;SDS011;68470;50.224;14.348;2023-07-02T10:22:43;4.70;;;2.42;;
79066;SDS011;68470;50.224;14.348;2023-07-02T10:25:10;3.30;;;2.92;;
79066;SDS011;68470;50.224;14.348;2023-07-02T10:27:37;3.13;;;2.78;;
79066;SDS011;68470;50.224;14.348;2023-07-02T10:30:07;3.75;;;3.05;;
79066;SDS011;68470;50.224;14.348;2023-07-02T10:32:34;3.42;;;3.03;;
79066;SDS011;68470;50.224;14.348;2023-07-02T10:35:01;4.00;;;3.30;;
79066;SDS011;68470;50.224;14.348;2023-07-02T10:37:38;4.90;;;3.53;;
79066;SDS011;68470;50.224;14.348;2023-07-02T10:40:06;6.57;;;3.58;;
79066;SDS011;68470;50.224;14.348;2023-07-02T10:42:43;5.38;;;2.80;;
79066;SDS011;68470;50.224;14.348;2023-07-02T10:45:13;3.70;;;2.75;;
79066;SDS011;68470;50.224;14.348;2023-07-02T10:47:40;3.70;;;2.90;;
79066;SDS011;68470;50.224;14.348;2023-07-02T10:52:42;3.20;;;2.70;;
79066;SDS011;68470;50.224;14.348;2023-07-02T10:55:08;4.43;;;3.92;;
79066;SDS011;68470;50.224;14.348;2023-07-02T10:57:34;4.18;;;2.92;;
79066;SDS011;68470;50.224;14.348;2023-07-02T11:00:03;3.85;;;2.70;;
79066;SDS011;68470;50.224;14.348;2023-07-02T11:02:48;3.17;;;2.63;;
79066;SDS011;68470;50.224;14.348;2023-07-02T11:05:14;2.90;;;2.60;;
79066;SDS011;68470;50.224;14.348;2023-07-02T11:07:40;4.03;;;3.63;;
79066;SDS011;68470;50.224;14.348;2023-07-02T11:10:07;5.78;;;3.40;;
79066;SDS011;68470;50.224;14.348;2023-07-02T11:12:35;2.78;;;2.50;;
79066;SDS011;68470;50.224;14.348;2023-07-02T11:15:09;4.88;;;2.80;;
79066;SDS011;68470;50.224;14.348;2023-07-02T11:17:40;3.75;;;2.13;;
79066;SDS011;68470;50.224;14.348;2023-07-02T11:20:10;3.53;;;2.53;;
79066;SDS011;68470;50.224;14.348;2023-07-02T11:22:38;2.95;;;2.45;;
79066;SDS011;68470;50.224;14.348;2023-07-02T11:25:10;3.67;;;2.35;;
79066;SDS011;68470;50.224;14.348;2023-07-02T11:27:41;4.80;;;2.63;;
79066;SDS011;68470;50.224;14.348;2023-07-02T11:30:08;4.90;;;2.80;;
79066;SDS011;68470;50.224;14.348;2023-07-02T11:32:51;4.05;;;2.60;;
79066;SDS011;68470;50.224;14.348;2023-07-02T11:35:17;3.80;;;2.50;;
79066;SDS011;68470;50.224;14.348;2023-07-02T11:37:44;3.42;;;2.70;;
79066;SDS011;68470;50.224;14.348;2023-07-02T11:40:11;3.50;;;2.25;;
79066;SDS011;68470;50.224;14.348;2023-07-02T11:42:38;4.00;;;2.65;;
79066;SDS011;68470;50.224;14.348;2023-07-02T11:45:03;3.65;;;3.35;;
79066;SDS011;68470;50.224;14.348;2023-07-02T11:47:30;3.40;;;2.92;;
79066;SDS011;68470;50.224;14.348;2023-07-02T11:49:56;4.35;;;2.50;;
79066;SDS011;68470;50.224;14.348;2023-07-02T11:52:24;3.38;;;2.70;;
79066;SDS011;68470;50.224;14.348;2023-07-02T11:54:50;3.65;;;2.55;;
79066;SDS011;68470;50.224;14.348;2023-07-02T11:57:16;3.28;;;2.53;;
79066;SDS011;68470;50.224;14.348;2023-07-02T11:59:42;4.35;;;2.70;;
79066;SDS011;68470;50.224;14.348;2023-07-02T12:02:08;4.35;;;3.13;;
79066;SDS011;68470;50.224;14.348;2023-07-02T12:04:35;5.00;;;3.05;;
79066;SDS011;68470;50.224;14.348;2023-07-02T12:07:01;3.72;;;3.17;;
79066;SDS011;68470;50.224;14.348;2023-07-02T12:09:28;4.07;;;3.55;;
79066;SDS011;68470;50.224;14.348;2023-07-02T12:11:55;3.85;;;3.08;;
79066;SDS011;68470;50.224;14.348;2023-07-02T12:14:20;3.40;;;2.65;;
79066;SDS011;68470;50.224;14.348;2023-07-02T12:16:46;3.95;;;2.85;;
79066;SDS011;68470;50.224;14.348;2023-07-02T12:19:12;2.92;;;2.63;;
79066;SDS011;68470;50.224;14.348;2023-07-02T12:21:42;3.80;;;2.72;;
79066;SDS011;68470;50.224;14.348;2023-07-02T12:24:07;3.53;;;3.20;;
79066;SDS011;68470;50.224;14.348;2023-07-02T12:26:35;4.53;;;3.35;;
79066;SDS011;68470;50.224;14.348;2023-07-02T12:29:02;4.20;;;2.70;;
79066;SDS011;68470;50.224;14.348;2023-07-02T12:31:28;3.95;;;2.72;;
79066;SDS011;68470;50.224;14.348;2023-07-02T12:33:54;3.22;;;2.50;;
79066;SDS011;68470;50.224;14.348;2023-07-02T12:36:20;3.22;;;2.92;;
79066;SDS011;68470;50.224;14.348;2023-07-02T12:38:46;2.47;;;2.20;;
79066;SDS011;68470;50.224;14.348;2023-07-02T12:41:12;2.90;;;2.50;;
79066;SDS011;68470;50.224;14.348;2023-07-02T12:43:41;3.00;;;2.70;;
79066;SDS011;68470;50.224;14.348;2023-07-02T12:46:08;2.60;;;2.10;;
79066;SDS011;68470;50.224;14.348;2023-07-02T12:48:35;2.45;;;2.05;;
79066;SDS011;68470;50.224;14.348;2023-07-02T12:51:01;3.08;;;2.30;;
79066;SDS011;68470;50.224;14.348;2023-07-02T12:53:27;4.07;;;2.20;;
79066;SDS011;68470;50.224;14.348;2023-07-02T12:55:53;2.50;;;2.30;;
79066;SDS011;68470;50.224;14.348;2023-07-02T12:58:22;2.97;;;2.53;;
79066;SDS011;68470;50.224;14.348;2023-07-02T13:00:48;3.08;;;2.55;;
79066;SDS011;68470;50.224;14.348;2023-07-02T13:03:14;3.67;;;2.67;;
79066;SDS011;68470;50.224;14.348;2023-07-02T13:05:43;2.85;;;2.45;;
79066;SDS011;68470;50.224;14.348;2023-07-02T13:08:12;3.33;;;2.67;;
79066;SDS011;68470;50.224;14.348;2023-07-02T13:10:40;2.90;;;2.60;;
79066;SDS011;68470;50.224;14.348;2023-07-02T13:13:05;3.30;;;2.60;;
79066;SDS011;68470;50.224;14.348;2023-07-02T13:15:32;3.55;;;2.42;;
79066;SDS011;68470;50.224;14.348;2023-07-02T13:17:59;3.97;;;2.85;;
79066;SDS011;68470;50.224;14.348;2023-07-02T13:20:28;2.85;;;2.28;;
79066;SDS011;68470;50.224;14.348;2023-07-02T13:22:54;3.92;;;2.38;;
79066;SDS011;68470;50.224;14.348;2023-07-02T13:25:25;2.45;;;2.25;;
79066;SDS011;68470;50.224;14.348;2023-07-02T13:27:52;3.42;;;2.22;;
79066;SDS011;68470;50.224;14.348;2023-07-02T13:30:18;3.17;;;2.53;;
79066;SDS011;68470;50.224;14.348;2023-07-02T13:32:45;3.50;;;2.85;;
79066;SDS011;68470;50.224;14.348;2023-07-02T13:35:11;3.47;;;2.90;;
79066;SDS011;68470;50.224;14.348;2023-07-02T13:37:36;2.90;;;2.60;;
79066;SDS011;68470;50.224;14.348;2023-07-02T13:40:04;4.03;;;2.55;;
79066;SDS011;68470;50.224;14.348;2023-07-02T13:42:31;3.33;;;2.97;;
79066;SDS011;68470;50.224;14.348;2023-07-02T13:44:57;2.97;;;2.47;;
79066;SDS011;68470;50.224;14.348;2023-07-02T13:47:23;2.63;;;2.30;;
79066;SDS011;68470;50.224;14.348;2023-07-02T13:49:49;3.22;;;2.35;;
79066;SDS011;68470;50.224;14.348;2023-07-02T13:52:15;3.65;;;2.78;;
79066;SDS011;68470;50.224;14.348;2023-07-02T13:54:41;3.70;;;2.72;;
79066;SDS011;68470;50.224;14.348;2023-07-02T13:57:07;5.25;;;2.50;;
79066;SDS011;68470;50.224;14.348;2023-07-02T13:59:33;6.22;;;2.53;;
79066;SDS011;68470;50.224;14.348;2023-07-02T14:01:59;4.40;;;2.30;;
79066;SDS011;68470;50.224;14.348;2023-07-02T14:04:25;3.78;;;2.65;;
79066;SDS011;68470;50.224;14.348;2023-07-02T14:06:51;7.57;;;2.60;;
79066;SDS011;68470;50.224;14.348;2023-07-02T14:09:17;3.53;;;2.42;;
79066;SDS011;68470;50.224;14.348;2023-07-02T14:11:43;3.58;;;2.47;;
79066;SDS011;68470;50.224;14.348;2023-07-02T14:14:09;3.05;;;2.17;;
79066;SDS011;68470;50.224;14.348;2023-07-02T14:16:35;4.07;;;2.72;;
79066;SDS011;68470;50.224;14.348;2023-07-02T14:19:01;2.80;;;2.22;;
79066;SDS011;68470;50.224;14.348;2023-07-02T14:21:27;4.93;;;2.63;;
79066;SDS011;68470;50.224;14.348;2023-07-02T14:23:53;3.45;;;2.00;;
79066;SDS011;68470;50.224;14.348;2023-07-02T14:26:20;3.40;;;2.05;;
79066;SDS011;68470;50.224;14.348;2023-07-02T14:28:46;4.45;;;2.03;;
79066;SDS011;68470;50.224;14.348;2023-07-02T14:31:12;3.13;;;2.50;;
79066;SDS011;68470;50.224;14.348;2023-07-02T14:33:38;2.80;;;1.95;;